createdAt,value
2023-05-10T00:00:49.333Z,19152.5723
2023-05-10T00:01:57.432Z,19151.7148
2023-05-10T00:03:05.643Z,19152.9277
2023-05-10T00:04:13.621Z,19155.2852
2023-05-10T00:05:21.501Z,19154.9277
2023-05-10T00:06:29.470Z,19157.5000
2023-05-10T00:07:37.523Z,19154.4277
2023-05-10T00:08:45.712Z,19152.9277
2023-05-10T00:09:53.856Z,19154.0723
2023-05-10T00:11:01.860Z,19152.0723
2023-05-10T00:12:09.922Z,19154.8574
2023-05-10T00:13:18.048Z,19155.2852
2023-05-10T00:14:26.085Z,19156.2148
2023-05-10T00:15:34.048Z,19155.0000
2023-05-10T00:16:42.149Z,19153.4277
2023-05-10T00:17:50.178Z,19153.7852
2023-05-10T00:18:58.237Z,19154.0000
2023-05-10T00:20:06.198Z,19153.7852
2023-05-10T00:21:14.196Z,19151.7852
2023-05-10T00:22:22.253Z,19152.0000
2023-05-10T00:23:30.468Z,19156.0000
2023-05-10T00:24:38.474Z,19151.3574
2023-05-10T00:25:46.794Z,19149.6426
2023-05-10T00:26:54.944Z,19153.3574
2023-05-10T00:28:02.663Z,19150.4277
2023-05-10T00:29:10.702Z,19150.2148
2023-05-10T00:30:19.041Z,19150.8574
2023-05-10T00:31:26.863Z,19150.2852
2023-05-10T00:32:34.918Z,19149.7148
2023-05-10T00:33:42.922Z,19150.1426
2023-05-10T00:34:50.875Z,19153.7852
2023-05-10T00:35:58.896Z,19151.0000
2023-05-10T00:37:06.996Z,19150.2148
2023-05-10T00:38:15.227Z,19148.5723
2023-05-10T00:39:23.292Z,19149.3574
2023-05-10T00:40:31.341Z,19146.2148
2023-05-10T00:41:39.436Z,19144.1426
2023-05-10T00:42:47.589Z,19144.3574
2023-05-10T00:43:55.486Z,19143.9277
2023-05-10T00:45:03.529Z,19142.3574
2023-05-10T00:46:11.751Z,19144.9277
2023-05-10T00:47:19.644Z,19142.2852
2023-05-10T00:48:27.783Z,19140.8574
2023-05-10T00:49:35.620Z,19137.8574
2023-05-10T00:50:43.690Z,19141.8574
2023-05-10T00:51:51.721Z,19142.6426
2023-05-10T00:52:59.976Z,19138.0000
2023-05-10T00:54:08.023Z,19140.3574
2023-05-10T00:55:16.035Z,19140.7148
2023-05-10T00:56:24.086Z,19140.5723
2023-05-10T00:57:32.166Z,19140.4277
2023-05-10T00:58:40.319Z,19139.2148
2023-05-10T00:59:48.299Z,19140.9277
2023-05-10T01:00:56.426Z,19141.7148
2023-05-10T01:02:04.479Z,19144.3574
2023-05-10T01:03:12.582Z,19145.4277
2023-05-10T01:04:20.396Z,19144.0723
2023-05-10T01:05:28.478Z,19144.8574
2023-05-10T01:06:36.476Z,19143.0000
2023-05-10T01:07:44.708Z,19143.5000
2023-05-10T01:08:52.724Z,19141.8574
2023-05-10T01:10:00.800Z,19145.2148
2023-05-10T01:11:08.861Z,19145.4277
2023-05-10T01:12:16.979Z,19147.4277
2023-05-10T01:13:25.008Z,19146.6426
2023-05-10T01:14:33.144Z,19147.6426
2023-05-10T01:15:41.147Z,19146.0723
2023-05-10T01:16:49.106Z,19147.2852
2023-05-10T01:17:57.209Z,19146.6426
2023-05-10T01:19:05.089Z,19147.7148
2023-05-10T01:20:13.190Z,19147.8574
2023-05-10T01:21:21.259Z,19148.7852
2023-05-10T01:22:29.407Z,19146.3574
2023-05-10T01:23:37.456Z,19145.5723
2023-05-10T01:24:45.502Z,19146.7852
2023-05-10T01:25:53.573Z,19146.0723
2023-05-10T01:27:01.654Z,19145.6426
2023-05-10T01:28:09.672Z,19145.7148
2023-05-10T01:29:17.758Z,19147.9277
2023-05-10T01:30:25.909Z,19147.5000
2023-05-10T01:31:33.959Z,19149.2148
2023-05-10T01:32:42.136Z,19148.8574
2023-05-10T01:33:49.834Z,19146.8574
2023-05-10T01:34:57.887Z,19147.1426
2023-05-10T01:36:05.940Z,19144.8574
2023-05-10T01:37:14.134Z,19147.7148
2023-05-10T01:38:22.207Z,19148.6426
2023-05-10T01:39:30.236Z,19148.0723
2023-05-10T01:40:38.289Z,19148.8574
2023-05-10T01:41:46.384Z,19147.3574
2023-05-10T01:42:54.402Z,19148.5723
2023-05-10T01:44:02.435Z,19148.1426
2023-05-10T01:45:10.496Z,19147.3574
2023-05-10T01:46:18.673Z,19147.5723
2023-05-10T01:47:26.707Z,19147.3574
2023-05-10T01:48:34.540Z,19146.2852
2023-05-10T01:49:42.574Z,19144.9277
2023-05-10T01:50:50.665Z,19145.6426
2023-05-10T01:51:58.901Z,19145.8574
2023-05-10T01:53:06.942Z,19145.3574
2023-05-10T01:54:14.983Z,19143.7852
2023-05-10T01:55:23.039Z,19144.4277
2023-05-10T01:56:31.193Z,19145.1426
2023-05-10T01:57:39.176Z,19146.6426
2023-05-10T01:58:47.292Z,19145.1426
2023-05-10T01:59:55.258Z,19145.0723
2023-05-10T02:01:03.398Z,19146.4277
2023-05-10T02:02:11.379Z,19142.2148
2023-05-10T02:03:19.303Z,19143.2852
2023-05-10T02:04:27.317Z,19143.5000
2023-05-10T02:05:35.390Z,19143.0000
2023-05-10T02:06:43.658Z,19144.8574
2023-05-10T02:07:51.601Z,19144.0723
2023-05-10T02:08:59.727Z,19142.9277
2023-05-10T02:10:07.731Z,19142.1426
2023-05-10T02:11:15.802Z,19145.9277
2023-05-10T02:12:23.992Z,19143.1426
2023-05-10T02:13:31.983Z,19143.3574
2023-05-10T02:14:39.934Z,19145.7852
2023-05-10T02:15:48.000Z,19144.9277
2023-05-10T02:16:56.186Z,19145.0000
2023-05-10T02:18:04.256Z,19146.0000
2023-05-10T02:19:12.043Z,19146.8574
2023-05-10T02:20:20.327Z,19143.7852
2023-05-10T02:21:28.160Z,19142.5000
2023-05-10T02:22:36.364Z,19144.5723
2023-05-10T02:23:44.475Z,19144.6426
2023-05-10T02:24:52.464Z,19142.2148
2023-05-10T02:26:00.737Z,19142.6426
2023-05-10T02:27:08.559Z,19142.3574
2023-05-10T02:28:16.715Z,19144.6426
2023-05-10T02:29:24.724Z,19145.0723
2023-05-10T02:30:32.873Z,19144.1426
2023-05-10T02:31:41.331Z,19144.2852
2023-05-10T02:32:48.795Z,19143.7148
2023-05-10T02:33:56.795Z,19147.3574
2023-05-10T02:35:04.880Z,19145.6426
2023-05-10T02:36:13.052Z,19142.5723
2023-05-10T02:37:21.211Z,19142.0723
2023-05-10T02:38:29.258Z,19144.2852
2023-05-10T02:39:37.261Z,19145.8574
2023-05-10T02:40:45.269Z,19145.1426
2023-05-10T02:41:53.398Z,19145.0000
2023-05-10T02:43:01.416Z,19143.5723
2023-05-10T02:44:09.692Z,19147.0723
2023-05-10T02:45:17.609Z,19143.6426
2023-05-10T02:46:25.790Z,19147.8574
2023-05-10T02:47:33.624Z,19144.5000
2023-05-10T02:48:41.535Z,19145.5723
2023-05-10T02:49:49.583Z,19144.5723
2023-05-10T02:50:57.886Z,19145.0000
2023-05-10T02:52:10.735Z,19145.2676
2023-05-10T02:53:19.019Z,19146.7148
2023-05-10T02:54:26.833Z,19147.2148
2023-05-10T02:55:34.921Z,19146.6426
2023-05-10T02:56:42.984Z,19144.4277
2023-05-10T02:57:50.981Z,19146.2852
2023-05-10T02:58:59.102Z,19145.3574
2023-05-10T03:00:07.109Z,19147.4277
2023-05-10T03:01:15.053Z,19145.1426
2023-05-10T03:02:23.146Z,19147.8574
2023-05-10T03:03:31.120Z,19148.4277
2023-05-10T03:04:39.433Z,19148.1426
2023-05-10T03:05:47.353Z,19145.5000
2023-05-10T03:06:55.441Z,19146.6426
2023-05-10T03:08:03.599Z,19148.2852
2023-05-10T03:09:11.679Z,19151.0000
2023-05-10T03:10:19.726Z,19147.7852
2023-05-10T03:11:27.673Z,19145.7148
2023-05-10T03:12:35.695Z,19149.0000
2023-05-10T03:13:43.825Z,19143.2852
2023-05-10T03:14:51.990Z,19141.5723
2023-05-10T03:15:59.782Z,19142.2852
2023-05-10T03:17:07.803Z,19142.0723
2023-05-10T03:18:15.925Z,19145.1426
2023-05-10T03:19:24.185Z,19143.3574
2023-05-10T03:20:32.182Z,19145.0723
2023-05-10T03:21:40.262Z,19144.2148
2023-05-10T03:22:48.109Z,19144.1426
2023-05-10T03:23:56.345Z,19145.0723
2023-05-10T03:25:04.524Z,19144.5723
2023-05-10T03:26:12.393Z,19141.7852
2023-05-10T03:27:20.472Z,19141.3574
2023-05-10T03:28:28.654Z,19141.6426
2023-05-10T03:29:36.620Z,19141.2852
2023-05-10T03:30:44.506Z,19143.2148
2023-05-10T03:31:52.684Z,19140.0000
2023-05-10T03:33:00.785Z,19141.2852
2023-05-10T03:34:08.861Z,19141.4277
2023-05-10T03:35:16.987Z,19143.5000
2023-05-10T03:36:24.945Z,19140.7852
2023-05-10T03:37:32.971Z,19144.0723
2023-05-10T03:38:41.078Z,19142.8574
2023-05-10T03:39:49.210Z,19144.0000
2023-05-10T03:40:57.468Z,19141.9277
2023-05-10T03:42:05.290Z,19143.6426
2023-05-10T03:43:13.323Z,19142.0723
2023-05-10T03:44:21.412Z,19142.2852
2023-05-10T03:45:29.254Z,19144.4277
2023-05-10T03:46:37.388Z,19144.8574
2023-05-10T03:47:45.505Z,19140.9277
2023-05-10T03:48:53.578Z,19140.7852
2023-05-10T03:50:01.678Z,19138.5000
2023-05-10T03:51:09.835Z,19141.2148
2023-05-10T03:52:17.921Z,19138.5723
2023-05-10T03:53:26.161Z,19143.2148
2023-05-10T03:54:34.000Z,19139.5723
2023-05-10T03:55:41.978Z,19136.2148
2023-05-10T03:56:50.033Z,19138.0723
2023-05-10T03:57:58.128Z,19139.7852
2023-05-10T03:59:06.041Z,19135.9277
2023-05-10T04:00:14.046Z,19135.5000
2023-05-10T04:01:22.021Z,19135.2148
2023-05-10T04:02:30.213Z,19132.1426
2023-05-10T04:03:38.383Z,19133.7148
2023-05-10T04:04:46.383Z,19137.0000
2023-05-10T04:05:54.367Z,19135.6426
2023-05-10T04:07:02.436Z,19135.7148
2023-05-10T04:08:10.449Z,19132.7148
2023-05-10T04:09:18.567Z,19134.2852
2023-05-10T04:10:26.672Z,19135.3574
2023-05-10T04:11:34.799Z,19135.7852
2023-05-10T04:12:42.836Z,19133.5000
2023-05-10T04:13:50.766Z,19137.5723
2023-05-10T04:14:58.703Z,19133.9277
2023-05-10T04:16:06.843Z,19132.8574
2023-05-10T04:17:14.905Z,19136.1426
2023-05-10T04:18:23.025Z,19136.7852
2023-05-10T04:19:31.105Z,19133.8574
2023-05-10T04:20:39.140Z,19134.1426
2023-05-10T04:21:47.181Z,19132.0723
2023-05-10T04:22:55.237Z,19133.8574
2023-05-10T04:24:03.155Z,19134.5000
2023-05-10T04:25:11.521Z,19133.4277
2023-05-10T04:26:19.411Z,19133.9277
2023-05-10T04:27:27.517Z,19136.8574
2023-05-10T04:28:35.532Z,19135.9277
2023-05-10T04:29:43.511Z,19137.7148
2023-05-10T04:30:51.545Z,19135.5723
2023-05-10T04:31:59.567Z,19134.2148
2023-05-10T04:33:07.889Z,19136.6426
2023-05-10T04:34:15.806Z,19136.7148
2023-05-10T04:35:23.873Z,19135.9277
2023-05-10T04:36:31.933Z,19138.4277
2023-05-10T04:37:39.949Z,19138.2852
2023-05-10T04:38:48.077Z,19137.0723
2023-05-10T04:39:56.114Z,19137.5723
2023-05-10T04:41:04.164Z,19138.7148
2023-05-10T04:42:12.454Z,19139.0723
2023-05-10T04:43:20.247Z,19139.3574
2023-05-10T04:44:28.181Z,19140.4277
2023-05-10T04:45:36.225Z,19138.7852
2023-05-10T04:46:44.361Z,19139.3574
2023-05-10T04:47:52.713Z,19139.1426
2023-05-10T04:49:00.562Z,19140.4277
2023-05-10T04:50:08.697Z,19139.4277
2023-05-10T04:51:16.765Z,19142.2852
2023-05-10T04:52:24.763Z,19143.0000
2023-05-10T04:53:32.886Z,19143.5000
2023-05-10T04:54:41.051Z,19141.1426
2023-05-10T04:55:49.090Z,19143.2852
2023-05-10T04:56:57.058Z,19140.2852
2023-05-10T04:58:05.051Z,19142.0000
2023-05-10T04:59:13.019Z,19140.5723
2023-05-10T05:00:21.046Z,19140.7852
2023-05-10T05:01:29.263Z,19142.2852
2023-05-10T05:02:37.397Z,19141.5723
2023-05-10T05:03:45.679Z,19138.4277
2023-05-10T05:04:53.406Z,19139.0000
2023-05-10T05:06:01.578Z,19137.5000
2023-05-10T05:07:09.536Z,19133.6426
2023-05-10T05:08:17.672Z,19134.7148
2023-05-10T05:09:25.650Z,19138.8574
2023-05-10T05:10:33.825Z,19132.8574
2023-05-10T05:11:41.815Z,19132.8574
2023-05-10T05:12:49.841Z,19130.0723
2023-05-10T05:13:57.755Z,19134.7852
2023-05-10T05:15:07.849Z,19132.0000
2023-05-10T05:16:18.852Z,19135.5996
2023-05-10T05:17:26.988Z,19134.6426
2023-05-10T05:18:34.971Z,19135.0723
2023-05-10T05:19:42.983Z,19133.0723
2023-05-10T05:20:51.061Z,19133.5000
2023-05-10T05:21:59.105Z,19132.8574
2023-05-10T05:23:07.239Z,19132.8574
2023-05-10T05:24:15.238Z,19132.6426
2023-05-10T05:25:23.169Z,19134.0723
2023-05-10T05:26:31.469Z,19132.0723
2023-05-10T05:27:39.339Z,19132.4277
2023-05-10T05:28:47.362Z,19134.7852
2023-05-10T05:29:55.380Z,19133.5000
2023-05-10T05:31:03.540Z,19133.0000
2023-05-10T05:32:11.610Z,19134.2148
2023-05-10T05:33:19.768Z,19137.3574
2023-05-10T05:34:27.747Z,19136.7852
2023-05-10T05:35:35.814Z,19137.7148
2023-05-10T05:36:43.831Z,19141.0723
2023-05-10T05:37:52.088Z,19139.8574
2023-05-10T05:39:00.041Z,19139.6426
2023-05-10T05:40:07.998Z,19137.5000
2023-05-10T05:41:16.100Z,19140.0000
2023-05-10T05:42:24.014Z,19139.6426
2023-05-10T05:43:32.016Z,19141.3574
2023-05-10T05:44:40.127Z,19143.1426
2023-05-10T05:45:48.309Z,19141.8574
2023-05-10T05:46:56.631Z,19141.0723
2023-05-10T05:48:04.499Z,19142.7148
2023-05-10T05:49:12.449Z,19144.2148
2023-05-10T05:50:20.556Z,19145.1426
2023-05-10T05:51:28.595Z,19147.0723
2023-05-10T05:52:36.643Z,19149.7852
2023-05-10T05:53:44.740Z,19152.9277
2023-05-10T05:54:52.754Z,19147.0000
2023-05-10T05:56:00.854Z,19149.3574
2023-05-10T05:57:08.739Z,19146.5723
2023-05-10T05:58:16.825Z,19148.3574
2023-05-10T05:59:24.904Z,19148.2148
2023-05-10T06:00:33.149Z,19144.5723
2023-05-10T06:01:41.168Z,19146.4277
2023-05-10T06:02:49.326Z,19142.7148
2023-05-10T06:03:57.323Z,19146.2852
2023-05-10T06:05:05.339Z,19146.3574
2023-05-10T06:06:13.385Z,19143.7148
2023-05-10T06:07:21.422Z,19143.9277
2023-05-10T06:08:29.600Z,19143.2148
2023-05-10T06:09:37.524Z,19145.4277
2023-05-10T06:10:45.589Z,19143.5000
2023-05-10T06:11:53.530Z,19144.0723
2023-05-10T06:13:01.594Z,19141.5000
2023-05-10T06:14:09.683Z,19140.2852
2023-05-10T06:15:18.066Z,19140.0000
2023-05-10T06:16:26.050Z,19136.0723
2023-05-10T06:17:34.006Z,19137.7852
2023-05-10T06:18:42.002Z,19134.7852
2023-05-10T06:19:50.128Z,19135.1426
2023-05-10T06:20:58.204Z,19131.0000
2023-05-10T06:22:06.224Z,19131.0000
2023-05-10T06:23:14.459Z,19128.8574
2023-05-10T06:24:22.348Z,19129.4277
2023-05-10T06:25:30.358Z,19129.4277
2023-05-10T06:26:38.297Z,19128.7852
2023-05-10T06:27:49.766Z,19130.0000
2023-05-10T06:28:59.456Z,19133.1992
2023-05-10T06:30:13.071Z,19132.0723
2023-05-10T06:31:20.387Z,19133.2676
2023-05-10T06:32:28.518Z,19132.9277
2023-05-10T06:33:36.532Z,19135.2148
2023-05-10T06:34:44.687Z,19135.3574
2023-05-10T06:35:52.662Z,19139.5000
2023-05-10T06:37:00.852Z,19139.1426
2023-05-10T06:38:08.769Z,19143.6426
2023-05-10T06:39:16.699Z,19142.9277
2023-05-10T06:40:24.933Z,19144.0000
2023-05-10T06:41:32.785Z,19142.2148
2023-05-10T06:42:41.184Z,19145.3574
2023-05-10T06:43:49.084Z,19144.2148
2023-05-10T06:44:57.323Z,19145.1426
2023-05-10T06:46:05.242Z,19144.8574
2023-05-10T06:47:13.218Z,19149.3574
2023-05-10T06:48:21.308Z,19148.5000
2023-05-10T06:49:29.365Z,19151.0000
2023-05-10T06:50:37.407Z,19154.0723
2023-05-10T06:51:45.455Z,19154.0000
2023-05-10T06:52:53.530Z,19152.7148
2023-05-10T06:54:01.460Z,19152.3574
2023-05-10T06:55:09.513Z,19149.4277
2023-05-10T06:56:17.602Z,19150.5723
2023-05-10T06:57:31.794Z,19148.2148
2023-05-10T06:58:38.692Z,19148.1328
2023-05-10T06:59:46.752Z,19149.6426
2023-05-10T07:00:54.831Z,19147.5000
2023-05-10T07:02:02.899Z,19151.5000
2023-05-10T07:03:11.038Z,19148.5000
2023-05-10T07:04:19.223Z,19146.5723
2023-05-10T07:05:27.053Z,19148.3574
2023-05-10T07:06:35.169Z,19146.1426
2023-05-10T07:07:43.072Z,19145.4277
2023-05-10T07:08:51.091Z,19142.7148
2023-05-10T07:09:59.128Z,19144.7148
2023-05-10T07:11:07.327Z,19140.7148
2023-05-10T07:12:16.046Z,19137.2852
2023-05-10T07:13:23.651Z,19140.2148
2023-05-10T07:14:31.511Z,19139.7852
2023-05-10T07:15:39.580Z,19138.3574
2023-05-10T07:16:47.654Z,19141.7852
2023-05-10T07:17:55.711Z,19140.0723
2023-05-10T07:19:03.792Z,19139.2148
2023-05-10T07:20:11.954Z,19143.0723
2023-05-10T07:21:20.009Z,19143.5723
2023-05-10T07:22:27.809Z,19141.2148
2023-05-10T07:23:35.894Z,19140.2852
2023-05-10T07:24:43.901Z,19141.0723
2023-05-10T07:25:52.104Z,19138.5723
2023-05-10T07:27:00.261Z,19135.4277
2023-05-10T07:28:08.197Z,19132.5723
2023-05-10T07:29:16.411Z,19129.1426
2023-05-10T07:30:24.413Z,19126.2852
2023-05-10T07:31:32.429Z,19120.7148
2023-05-10T07:32:40.596Z,19122.4277
2023-05-10T07:33:48.538Z,19127.7148
2023-05-10T07:34:56.628Z,19128.3574
2023-05-10T07:36:04.626Z,19128.7852
2023-05-10T07:37:12.583Z,19128.1426
2023-05-10T07:38:20.633Z,19129.8574
2023-05-10T07:39:28.690Z,19133.2852
2023-05-10T07:40:36.927Z,19137.0000
2023-05-10T07:41:45.199Z,19136.2148
2023-05-10T07:42:53.038Z,19139.2148
2023-05-10T07:44:01.063Z,19138.9277
2023-05-10T07:45:09.247Z,19141.5000
2023-05-10T07:46:17.510Z,19139.6426
2023-05-10T07:47:25.330Z,19135.0000
2023-05-10T07:48:33.368Z,19139.6426
2023-05-10T07:49:41.367Z,19137.5723
2023-05-10T07:50:49.429Z,19137.1426
2023-05-10T07:51:57.342Z,19135.1426
2023-05-10T07:53:05.476Z,19134.5000
2023-05-10T07:54:13.469Z,19132.5000
2023-05-10T07:55:21.664Z,19132.5723
2023-05-10T07:56:29.778Z,19131.9277
2023-05-10T07:57:37.876Z,19129.9277
2023-05-10T07:58:45.891Z,19130.2148
2023-05-10T07:59:53.938Z,19128.1426
2023-05-10T08:01:02.075Z,19130.4277
2023-05-10T08:02:10.035Z,19128.7852
2023-05-10T08:03:18.208Z,19125.8574
2023-05-10T08:04:26.238Z,19125.2852
2023-05-10T08:05:35.807Z,19124.3574
2023-05-10T08:06:47.140Z,19126.4004
2023-05-10T08:07:55.056Z,19126.0723
2023-05-10T08:09:03.153Z,19128.7852
2023-05-10T08:10:11.283Z,19124.7148
2023-05-10T08:11:19.372Z,19127.6426
2023-05-10T08:12:27.406Z,19131.0723
2023-05-10T08:13:35.561Z,19132.7148
2023-05-10T08:14:43.602Z,19132.1426
2023-05-10T08:15:51.823Z,19134.7852
2023-05-10T08:16:59.807Z,19135.3574
2023-05-10T08:18:07.873Z,19136.0723
2023-05-10T08:19:15.813Z,19134.6426
2023-05-10T08:20:23.819Z,19134.4277
2023-05-10T08:21:31.848Z,19133.8574
2023-05-10T08:22:39.792Z,19132.4277
2023-05-10T08:23:47.900Z,19129.9277
2023-05-10T08:24:56.268Z,19126.5723
2023-05-10T08:26:04.131Z,19124.9277
2023-05-10T08:27:12.222Z,19127.0723
2023-05-10T08:28:20.261Z,19119.3574
2023-05-10T08:29:30.440Z,19118.7852
2023-05-10T08:30:41.449Z,19117.4668
2023-05-10T08:31:49.343Z,19119.0723
2023-05-10T08:32:57.352Z,19114.2852
2023-05-10T08:34:05.385Z,19113.6426
2023-05-10T08:35:13.337Z,19117.0000
2023-05-10T08:36:21.359Z,19114.6426
2023-05-10T08:37:29.400Z,19113.6426
2023-05-10T08:38:37.643Z,19113.1426
2023-05-10T08:39:45.736Z,19113.6426
2023-05-10T08:40:53.738Z,19114.0000
2023-05-10T08:42:01.784Z,19113.9277
2023-05-10T08:43:09.849Z,19115.2852
2023-05-10T08:44:17.881Z,19117.8574
2023-05-10T08:45:26.009Z,19117.8574
2023-05-10T08:46:34.033Z,19117.7148
2023-05-10T08:47:42.069Z,19115.0000
2023-05-10T08:48:50.173Z,19111.9277
2023-05-10T08:49:58.078Z,19103.5723
2023-05-10T08:51:06.095Z,19102.6426
2023-05-10T08:52:14.141Z,19105.1426
2023-05-10T08:53:22.378Z,19107.9277
2023-05-10T08:54:30.417Z,19104.7148
2023-05-10T08:55:38.451Z,19107.9277
2023-05-10T08:56:49.199Z,19110.2148
2023-05-10T08:57:59.475Z,19110.3340
2023-05-10T08:59:07.578Z,19110.2148
2023-05-10T09:00:15.703Z,19117.3574
2023-05-10T09:01:23.710Z,19118.4277
2023-05-10T09:02:31.774Z,19117.4277
2023-05-10T09:03:39.828Z,19117.6426
2023-05-10T09:04:47.902Z,19121.0000
2023-05-10T09:05:55.809Z,19124.5723
2023-05-10T09:07:03.829Z,19127.0723
2023-05-10T09:08:12.150Z,19129.5723
2023-05-10T09:09:20.170Z,19129.8574
2023-05-10T09:10:28.224Z,19128.2852
2023-05-10T09:11:36.194Z,19129.2852
2023-05-10T09:12:44.260Z,19126.1426
2023-05-10T09:13:52.301Z,19125.5723
2023-05-10T09:15:00.584Z,19128.5723
2023-05-10T09:16:20.342Z,19127.7852
2023-05-10T09:17:21.299Z,19128.5996
2023-05-10T09:18:29.322Z,19130.8574
2023-05-10T09:19:37.333Z,19129.8574
2023-05-10T09:20:45.623Z,19136.0723
2023-05-10T09:21:53.593Z,19139.1426
2023-05-10T09:23:01.634Z,19134.2148
2023-05-10T09:24:09.722Z,19135.9277
2023-05-10T09:25:18.121Z,19138.3574
2023-05-10T09:26:25.861Z,19137.9277
2023-05-10T09:27:33.887Z,19137.7148
2023-05-10T09:28:41.931Z,19135.3574
2023-05-10T09:29:50.058Z,19137.8574
2023-05-10T09:30:58.124Z,19131.6426
2023-05-10T09:32:05.956Z,19128.7148
2023-05-10T09:33:14.062Z,19125.2852
2023-05-10T09:34:22.130Z,19127.1426
2023-05-10T09:35:30.342Z,19128.0723
2023-05-10T09:36:38.492Z,19128.8574
2023-05-10T09:37:46.402Z,19128.6426
2023-05-10T09:38:54.493Z,19133.3574
2023-05-10T09:40:02.482Z,19132.4277
2023-05-10T09:41:10.694Z,19137.8574
2023-05-10T09:42:18.633Z,19138.8574
2023-05-10T09:43:26.672Z,19139.2852
2023-05-10T09:44:34.748Z,19139.2148
2023-05-10T09:45:42.799Z,19141.4277
2023-05-10T09:46:50.739Z,19140.0723
2023-05-10T09:47:58.790Z,19142.5000
2023-05-10T09:49:06.787Z,19140.9277
2023-05-10T09:50:14.983Z,19144.0000
2023-05-10T09:51:23.130Z,19147.1426
2023-05-10T09:52:31.086Z,19149.2148
2023-05-10T09:53:39.160Z,19147.0000
2023-05-10T09:54:47.212Z,19146.5000
2023-05-10T09:55:55.316Z,19145.8574
2023-05-10T09:57:03.318Z,19143.9277
2023-05-10T09:58:11.659Z,19134.3574
2023-05-10T09:59:19.423Z,19136.1426
2023-05-10T10:00:27.613Z,19137.5000
2023-05-10T10:01:35.500Z,19140.3574
2023-05-10T10:02:43.513Z,19143.0000
2023-05-10T10:03:51.522Z,19141.0723
2023-05-10T10:04:59.895Z,19139.5000
2023-05-10T10:06:15.901Z,19136.5723
2023-05-10T10:07:20.678Z,19131.8672
2023-05-10T10:08:28.736Z,19125.6426
2023-05-10T10:09:36.770Z,19119.3574
2023-05-10T10:10:46.017Z,19117.0723
2023-05-10T10:11:53.001Z,19115.0000
2023-05-10T10:13:00.963Z,19110.0000
2023-05-10T10:14:09.059Z,19107.5723
2023-05-10T10:15:17.105Z,19107.0000
2023-05-10T10:16:25.021Z,19106.4277
2023-05-10T10:17:33.097Z,19107.5000
2023-05-10T10:18:41.308Z,19106.4277
2023-05-10T10:19:49.310Z,19105.8574
2023-05-10T10:20:57.421Z,19109.5000
2023-05-10T10:22:05.539Z,19115.5000
2023-05-10T10:23:15.170Z,19113.5723
2023-05-10T10:24:26.395Z,19116.0664
2023-05-10T10:25:34.602Z,19119.2148
2023-05-10T10:26:42.515Z,19121.2852
2023-05-10T10:27:50.596Z,19122.8574
2023-05-10T10:28:58.501Z,19125.3574
2023-05-10T10:30:06.546Z,19129.6426
2023-05-10T10:31:14.713Z,19130.5723
2023-05-10T10:32:22.800Z,19125.5000
2023-05-10T10:33:30.996Z,19122.3574
2023-05-10T10:34:38.905Z,19115.9277
2023-05-10T10:35:46.982Z,19114.1426
2023-05-10T10:36:55.006Z,19112.5000
2023-05-10T10:38:03.141Z,19108.5723
2023-05-10T10:39:11.146Z,19101.7852
2023-05-10T10:40:19.275Z,19094.7852
2023-05-10T10:41:27.222Z,19091.1426
2023-05-10T10:42:35.351Z,19089.4277
2023-05-10T10:43:43.244Z,19086.2148
2023-05-10T10:44:51.278Z,19082.2148
2023-05-10T10:45:59.362Z,19078.4277
2023-05-10T10:47:07.728Z,19070.0000
2023-05-10T10:48:15.636Z,19071.8574
2023-05-10T10:49:23.628Z,19069.9277
2023-05-10T10:50:31.809Z,19072.5000
2023-05-10T10:51:39.915Z,19073.8574
2023-05-10T10:52:48.002Z,19070.3574
2023-05-10T10:53:55.851Z,19072.7148
2023-05-10T10:55:04.118Z,19067.8574
2023-05-10T10:56:12.031Z,19065.4277
2023-05-10T10:57:20.077Z,19061.7852
2023-05-10T10:58:27.954Z,19059.2852
2023-05-10T10:59:36.018Z,19058.1426
2023-05-10T11:00:44.114Z,19061.0723
2023-05-10T11:01:52.395Z,19064.3574
2023-05-10T11:03:00.378Z,19073.1426
2023-05-10T11:04:08.379Z,19078.2852
2023-05-10T11:05:16.575Z,19088.0723
2023-05-10T11:06:24.680Z,19096.0000
2023-05-10T11:07:32.605Z,19097.0723
2023-05-10T11:08:40.595Z,19103.5723
2023-05-10T11:09:48.661Z,19109.0000
2023-05-10T11:10:56.910Z,19111.8574
2023-05-10T11:12:04.844Z,19117.7148
2023-05-10T11:13:12.683Z,19116.9277
2023-05-10T11:14:20.733Z,19117.7852
2023-05-10T11:15:28.775Z,19127.6426
2023-05-10T11:16:37.011Z,19128.7148
2023-05-10T11:17:45.259Z,19129.2852
2023-05-10T11:18:53.091Z,19129.4277
2023-05-10T11:20:01.114Z,19130.1426
2023-05-10T11:21:09.341Z,19133.1426
2023-05-10T11:22:17.194Z,19136.4277
2023-05-10T11:23:25.367Z,19132.8574
2023-05-10T11:24:33.452Z,19137.6426
2023-05-10T11:25:41.644Z,19134.7148
2023-05-10T11:26:49.476Z,19131.7148
2023-05-10T11:27:57.448Z,19132.2852
2023-05-10T11:29:05.520Z,19136.5000
2023-05-10T11:30:13.647Z,19135.1426
2023-05-10T11:31:21.829Z,19138.2852
2023-05-10T11:32:29.819Z,19143.4277
2023-05-10T11:33:37.925Z,19138.9277
2023-05-10T11:34:45.849Z,19133.0723
2023-05-10T11:35:53.968Z,19126.2148
2023-05-10T11:37:01.984Z,19116.5000
2023-05-10T11:38:10.075Z,19109.5723
2023-05-10T11:39:18.054Z,19113.7148
2023-05-10T11:40:26.137Z,19113.5000
2023-05-10T11:41:34.394Z,19113.8574
2023-05-10T11:42:42.116Z,19120.2148
2023-05-10T11:43:50.136Z,19121.0000
2023-05-10T11:44:58.248Z,19118.2148
2023-05-10T11:46:06.633Z,19115.5000
2023-05-10T11:47:15.309Z,19117.6426
2023-05-10T11:48:22.589Z,19122.0723
2023-05-10T11:49:30.855Z,19127.7148
2023-05-10T11:50:38.631Z,19128.8574
2023-05-10T11:51:46.678Z,19131.7852
2023-05-10T11:52:54.801Z,19133.3574
2023-05-10T11:54:02.867Z,19138.5000
2023-05-10T11:55:10.859Z,19135.5723
2023-05-10T11:56:18.939Z,19134.9277
2023-05-10T11:57:27.020Z,19139.9277
2023-05-10T11:58:34.905Z,19144.5723
2023-05-10T11:59:43.345Z,19149.6426
2023-05-10T12:00:51.020Z,19153.5723
2023-05-10T12:01:59.177Z,19151.7148
2023-05-10T12:03:07.374Z,19152.3574
2023-05-10T12:04:15.445Z,19157.5723
2023-05-10T12:05:23.366Z,19155.2852
2023-05-10T12:06:31.468Z,19150.4277
2023-05-10T12:07:39.547Z,19146.6426
2023-05-10T12:08:47.520Z,19136.9277
2023-05-10T12:09:55.570Z,19123.2148
2023-05-10T12:11:03.646Z,19108.7148
2023-05-10T12:12:11.706Z,19103.6426
2023-05-10T12:13:19.649Z,19098.0000
2023-05-10T12:14:27.718Z,19097.9277
2023-05-10T12:15:35.755Z,19105.2148
2023-05-10T12:16:43.987Z,19107.7148
2023-05-10T12:17:52.075Z,19110.9277
2023-05-10T12:19:00.077Z,19118.1426
2023-05-10T12:20:08.088Z,19122.7148
2023-05-10T12:21:16.194Z,19126.5000
2023-05-10T12:22:24.224Z,19128.5000
2023-05-10T12:23:32.334Z,19136.5000
2023-05-10T12:24:40.384Z,19138.1426
2023-05-10T12:25:48.417Z,19137.1426
2023-05-10T12:26:56.425Z,19138.7852
2023-05-10T12:28:04.423Z,19144.2148
2023-05-10T12:29:12.428Z,19147.2852
2023-05-10T12:30:20.482Z,19152.0000
2023-05-10T12:31:28.836Z,19149.9277
2023-05-10T12:32:36.750Z,19144.5723
2023-05-10T12:33:44.798Z,19138.5000
2023-05-10T12:34:52.860Z,19134.2852
2023-05-10T12:36:00.894Z,19118.3574